createdAt,value
2022-10-19T00:02:25.795Z,20.27
2022-10-19T00:04:52.614Z,20.10
2022-10-19T00:07:19.537Z,15.03
2022-10-19T00:09:46.278Z,23.50
2022-10-19T00:12:13.326Z,23.63
2022-10-19T00:14:40.127Z,20.10
2022-10-19T00:17:07.026Z,22.83
2022-10-19T00:19:34.082Z,24.67
2022-10-19T00:22:00.998Z,18.60
2022-10-19T00:24:27.917Z,27.03
2022-10-19T00:26:54.827Z,23.73
2022-10-19T00:29:21.710Z,22.93
2022-10-19T00:31:52.043Z,20.37
2022-10-19T00:34:18.928Z,17.53
2022-10-19T00:36:46.529Z,19.47
2022-10-19T00:39:16.033Z,26.07
2022-10-19T00:41:44.386Z,19.30
2022-10-19T00:44:15.854Z,17.10
2022-10-19T00:46:44.661Z,20.93
2022-10-19T00:49:22.085Z,21.17
2022-10-19T00:51:54.055Z,23.20
2022-10-19T00:54:22.397Z,18.17
2022-10-19T00:56:53.179Z,21.03
2022-10-19T00:59:25.265Z,20.47
2022-10-19T01:01:54.298Z,15.20
2022-10-19T01:04:23.461Z,26.80
2022-10-19T01:09:23.353Z,18.10
2022-10-19T01:11:50.233Z,19.07
2022-10-19T01:14:55.368Z,16.83
2022-10-19T01:17:48.434Z,18.80
2022-10-19T01:21:02.529Z,18.97
2022-10-19T01:23:36.630Z,12.83
2022-10-19T01:26:34.612Z,20.57
2022-10-19T01:29:07.587Z,17.33
2022-10-19T01:31:49.801Z,16.73
2022-10-19T01:34:25.038Z,15.50
2022-10-19T01:37:14.859Z,15.70
2022-10-19T01:39:53.563Z,12.50
2022-10-19T01:42:31.954Z,13.70
2022-10-19T01:45:30.263Z,12.07
2022-10-19T01:48:07.047Z,17.17
2022-10-19T01:50:36.875Z,16.47
2022-10-19T01:53:07.413Z,11.83
2022-10-19T01:55:37.609Z,19.57
2022-10-19T01:58:09.682Z,14.73
2022-10-19T02:00:41.289Z,15.23
2022-10-19T02:03:09.911Z,13.23
2022-10-19T02:05:38.985Z,11.70
2022-10-19T02:08:15.535Z,14.40
2022-10-19T02:10:44.455Z,14.07
2022-10-19T02:13:13.932Z,18.97
2022-10-19T02:15:46.263Z,17.23
2022-10-19T02:18:17.479Z,13.77
2022-10-19T02:20:45.312Z,10.93
2022-10-19T02:23:14.979Z,12.70
2022-10-19T02:25:42.041Z,17.70
2022-10-19T02:28:08.911Z,14.07
2022-10-19T02:30:35.986Z,14.63
2022-10-19T02:33:02.896Z,16.13
2022-10-19T02:35:31.117Z,17.53
2022-10-19T02:38:02.229Z,15.87
2022-10-19T02:40:33.635Z,15.07
2022-10-19T02:43:05.576Z,12.10
2022-10-19T02:45:37.481Z,15.13
2022-10-19T02:48:13.727Z,15.87
2022-10-19T02:50:45.009Z,15.03
2022-10-19T02:53:11.831Z,15.03
2022-10-19T02:58:10.888Z,16.00
2022-10-19T03:00:37.960Z,16.33
2022-10-19T03:03:04.804Z,16.27
2022-10-19T03:05:31.785Z,20.60
2022-10-19T03:07:58.515Z,15.70
2022-10-19T03:10:25.477Z,15.43
2022-10-19T03:12:52.235Z,14.20
2022-10-19T03:15:19.814Z,10.77
2022-10-19T03:17:46.583Z,12.37
2022-10-19T03:20:13.660Z,19.30
2022-10-19T03:22:40.397Z,17.37
2022-10-19T03:25:07.781Z,16.10
2022-10-19T03:27:34.837Z,16.17
2022-10-19T03:30:02.101Z,10.53
2022-10-19T03:32:28.890Z,18.17
2022-10-19T03:34:55.890Z,16.70
2022-10-19T03:37:22.642Z,17.77
2022-10-19T03:39:49.603Z,14.77
2022-10-19T03:42:16.334Z,13.10
2022-10-19T03:44:43.345Z,14.67
2022-10-19T03:47:10.023Z,14.87
2022-10-19T03:49:39.519Z,12.27
2022-10-19T03:52:09.259Z,16.27
2022-10-19T03:54:36.227Z,16.63
2022-10-19T03:57:03.106Z,19.07
2022-10-19T03:59:30.095Z,14.63
2022-10-19T04:01:56.960Z,13.80
2022-10-19T04:04:23.883Z,15.17
2022-10-19T04:06:53.467Z,13.57
2022-10-19T04:09:22.419Z,16.67
2022-10-19T04:11:50.040Z,12.87
2022-10-19T04:14:27.088Z,13.47
2022-10-19T04:17:05.707Z,16.13
2022-10-19T04:19:32.680Z,16.53
2022-10-19T04:21:59.687Z,14.00
2022-10-19T04:24:26.666Z,12.37
2022-10-19T04:26:55.073Z,10.17
2022-10-19T04:29:26.492Z,16.10
2022-10-19T04:31:56.842Z,18.87
2022-10-19T04:34:24.277Z,8.77
2022-10-19T04:36:51.202Z,14.03
2022-10-19T04:39:18.152Z,17.17
2022-10-19T04:41:44.903Z,17.07
2022-10-19T04:44:11.852Z,12.87
2022-10-19T04:46:38.858Z,26.70
2022-10-19T04:49:06.887Z,10.73
2022-10-19T04:51:34.732Z,12.20
2022-10-19T04:54:03.885Z,13.23
2022-10-19T04:56:32.344Z,12.93
2022-10-19T04:59:00.591Z,15.63
2022-10-19T05:01:29.780Z,14.73
2022-10-19T05:03:59.840Z,23.07
2022-10-19T05:06:27.668Z,8.90
2022-10-19T05:08:54.778Z,16.97
2022-10-19T05:11:22.345Z,15.90
2022-10-19T05:13:49.410Z,20.27
2022-10-19T05:16:19.021Z,11.57
2022-10-19T05:18:56.178Z,12.17
2022-10-19T05:21:23.252Z,17.97
2022-10-19T05:23:54.585Z,15.23
2022-10-19T05:26:23.844Z,11.77
2022-10-19T05:28:56.559Z,9.87
2022-10-19T05:31:26.306Z,14.40
2022-10-19T05:33:53.389Z,15.07
2022-10-19T05:36:21.348Z,12.07
2022-10-19T05:38:50.320Z,17.20
2022-10-19T05:41:17.452Z,14.47
2022-10-19T05:43:45.151Z,14.73
2022-10-19T05:46:14.446Z,16.30
2022-10-19T05:48:41.992Z,13.17
2022-10-19T05:51:11.826Z,17.50
2022-10-19T05:56:14.943Z,11.57
2022-10-19T05:58:41.951Z,19.43
2022-10-19T06:01:09.548Z,11.17
2022-10-19T06:03:36.704Z,11.80
2022-10-19T06:06:05.477Z,16.73
2022-10-19T06:08:33.981Z,13.43
2022-10-19T06:11:12.874Z,19.33
2022-10-19T06:13:41.064Z,15.60
2022-10-19T06:16:09.160Z,15.83
2022-10-19T06:18:37.000Z,22.00
2022-10-19T06:21:07.391Z,16.13
2022-10-19T06:23:35.804Z,11.97
2022-10-19T06:26:08.992Z,21.10
2022-10-19T06:28:37.864Z,21.67
2022-10-19T06:31:07.271Z,12.77
2022-10-19T06:33:39.035Z,13.00
2022-10-19T06:36:14.108Z,17.53
2022-10-19T06:38:42.741Z,26.77
2022-10-19T06:41:10.660Z,12.23
2022-10-19T06:43:38.399Z,17.43
2022-10-19T06:46:10.518Z,12.67
2022-10-19T06:48:37.851Z,11.53
2022-10-19T06:51:07.531Z,15.73
2022-10-19T06:53:35.882Z,15.17
2022-10-19T06:56:05.201Z,14.90
2022-10-19T06:58:36.717Z,13.93
2022-10-19T07:01:04.534Z,16.50
2022-10-19T07:03:31.492Z,18.90
2022-10-19T07:06:00.946Z,20.57
2022-10-19T07:08:30.153Z,15.53
2022-10-19T07:10:59.739Z,15.93
2022-10-19T07:13:28.171Z,21.23
2022-10-19T07:16:05.454Z,20.77
2022-10-19T07:18:34.165Z,21.73
2022-10-19T07:21:04.455Z,19.03
2022-10-19T07:23:33.336Z,18.83
2022-10-19T07:26:07.311Z,14.17
2022-10-19T07:28:35.229Z,12.33
2022-10-19T07:31:12.147Z,13.33
2022-10-19T07:33:39.479Z,16.37
2022-10-19T07:36:08.717Z,10.13
2022-10-19T07:38:36.331Z,12.80
2022-10-19T07:41:15.406Z,11.67
2022-10-19T07:43:43.917Z,13.57
2022-10-19T07:46:16.278Z,10.97
2022-10-19T07:48:44.244Z,10.90
2022-10-19T07:51:13.563Z,9.70
2022-10-19T07:53:40.998Z,6.57
2022-10-19T07:56:10.333Z,9.43
2022-10-19T07:58:38.172Z,6.90
2022-10-19T08:01:14.363Z,12.33
2022-10-19T08:04:48.739Z,9.73
2022-10-19T08:06:29.092Z,10.57
2022-10-19T08:08:56.610Z,9.63
2022-10-19T08:11:28.904Z,12.97
2022-10-19T08:13:58.612Z,7.90
2022-10-19T08:16:28.051Z,8.83
2022-10-19T08:19:08.120Z,9.63
2022-10-19T08:21:36.563Z,6.33
2022-10-19T08:24:03.910Z,14.27
2022-10-19T08:26:32.812Z,12.80
2022-10-19T08:29:05.148Z,5.83
2022-10-19T08:31:32.698Z,6.40
2022-10-19T08:33:59.957Z,10.97
2022-10-19T08:36:27.588Z,6.13
2022-10-19T08:38:54.597Z,11.70
2022-10-19T08:41:27.516Z,8.45
2022-10-19T08:44:06.248Z,13.65
2022-10-19T08:47:13.869Z,6.03
2022-10-19T08:49:41.872Z,5.20
2022-10-19T08:52:34.619Z,8.10
2022-10-19T08:55:15.204Z,4.78
2022-10-19T08:57:52.761Z,4.38
2022-10-19T09:00:38.064Z,2.85
2022-10-19T09:03:27.124Z,3.53
2022-10-19T09:06:26.639Z,3.63
2022-10-19T09:08:55.689Z,2.40
2022-10-19T09:11:27.381Z,5.38
2022-10-19T09:14:09.298Z,1.80
2022-10-19T09:16:36.388Z,3.30
2022-10-19T09:19:12.791Z,4.15
2022-10-19T09:21:51.608Z,3.67
2022-10-19T09:24:32.487Z,1.33
2022-10-19T09:27:01.424Z,3.13
2022-10-19T09:29:37.062Z,3.30
2022-10-19T09:32:11.990Z,3.72
2022-10-19T09:34:44.619Z,0.95
2022-10-19T09:37:16.742Z,3.17
2022-10-19T09:39:54.140Z,0.85
2022-10-19T09:42:33.436Z,6.15
2022-10-19T09:45:02.830Z,2.22
2022-10-19T09:47:38.758Z,1.92
2022-10-19T09:50:16.203Z,3.38
2022-10-19T09:52:45.544Z,9.52
2022-10-19T09:55:39.326Z,3.60
2022-10-19T09:58:19.270Z,1.80
2022-10-19T10:00:51.982Z,4.13
2022-10-19T10:03:40.387Z,1.38
2022-10-19T10:06:10.306Z,1.45
2022-10-19T10:08:45.084Z,5.30
2022-10-19T10:11:23.235Z,8.52
2022-10-19T10:13:53.118Z,4.10
2022-10-19T10:16:29.254Z,1.98
2022-10-19T10:19:03.953Z,1.85
2022-10-19T10:21:47.941Z,3.58
2022-10-19T10:24:16.559Z,3.90
2022-10-19T10:26:49.839Z,2.13
2022-10-19T10:29:22.584Z,3.47
2022-10-19T10:31:53.934Z,3.95
2022-10-19T10:37:23.499Z,3.65
2022-10-19T10:39:53.883Z,7.90
2022-10-19T10:42:29.169Z,1.52
2022-10-19T10:44:56.791Z,1.75
2022-10-19T10:47:26.101Z,3.38
2022-10-19T10:49:57.195Z,4.28
2022-10-19T10:52:26.070Z,1.77
2022-10-19T10:55:08.290Z,2.65
2022-10-19T10:57:42.696Z,2.22
2022-10-19T11:00:16.292Z,4.07
2022-10-19T11:02:48.786Z,2.75
2022-10-19T11:05:22.970Z,2.47
2022-10-19T11:08:12.822Z,4.13
2022-10-19T11:10:46.909Z,1.27
2022-10-19T11:13:21.408Z,2.80
2022-10-19T11:15:55.616Z,4.95
2022-10-19T11:18:27.696Z,2.77
2022-10-19T11:21:15.656Z,3.63
2022-10-19T11:23:51.603Z,2.67
2022-10-19T11:26:56.470Z,4.03
2022-10-19T11:30:02.622Z,7.30
2022-10-19T11:32:29.654Z,4.95
2022-10-19T11:34:59.020Z,3.47
2022-10-19T11:37:50.252Z,3.25
2022-10-19T11:41:16.402Z,2.53
2022-10-19T11:44:01.521Z,2.00
2022-10-19T11:46:35.007Z,3.50
2022-10-19T11:49:22.298Z,2.58
2022-10-19T11:52:01.740Z,2.03
2022-10-19T11:54:56.719Z,1.23
2022-10-19T11:57:27.991Z,4.28
2022-10-19T12:00:14.805Z,0.75
2022-10-19T12:03:09.259Z,1.67
2022-10-19T12:05:59.443Z,5.07
2022-10-19T12:09:03.688Z,1.15
2022-10-19T12:11:52.697Z,5.18
2022-10-19T12:14:26.500Z,1.33
2022-10-19T12:16:58.848Z,0.68
2022-10-19T12:19:31.212Z,2.97
2022-10-19T12:22:01.912Z,2.72
2022-10-19T12:24:30.469Z,0.57
2022-10-19T12:26:58.909Z,2.28
2022-10-19T12:29:36.545Z,0.63
2022-10-19T12:32:05.924Z,3.53
2022-10-19T12:35:00.636Z,0.80
2022-10-19T12:37:41.350Z,2.28
2022-10-19T12:40:32.141Z,0.88
2022-10-19T12:43:27.346Z,1.33
2022-10-19T12:46:18.283Z,3.88
2022-10-19T12:48:45.219Z,0.52
2022-10-19T12:51:15.002Z,2.80
2022-10-19T12:53:48.867Z,0.82
2022-10-19T12:56:20.651Z,0.82
2022-10-19T12:58:53.340Z,2.03
2022-10-19T13:01:28.480Z,3.42
2022-10-19T13:04:10.290Z,2.63
2022-10-19T13:06:42.769Z,1.23
2022-10-19T13:09:31.823Z,1.10
2022-10-19T13:12:16.456Z,3.65
2022-10-19T13:14:50.080Z,3.58
2022-10-19T13:17:36.464Z,3.58
2022-10-19T13:20:29.752Z,2.80
2022-10-19T13:22:59.476Z,3.40
2022-10-19T13:25:33.282Z,2.88
2022-10-19T13:28:01.921Z,1.73
2022-10-19T13:30:44.041Z,4.45
2022-10-19T13:33:28.534Z,7.97
2022-10-19T13:36:04.300Z,7.97
2022-10-19T13:38:37.147Z,1.45
2022-10-19T13:41:15.346Z,2.38
2022-10-19T13:44:11.499Z,1.73
2022-10-19T13:46:44.426Z,5.90
2022-10-19T13:49:33.056Z,3.13
2022-10-19T13:52:44.661Z,1.73
2022-10-19T13:55:27.833Z,3.10
2022-10-19T13:58:14.131Z,2.33
2022-10-19T14:01:10.482Z,1.20
2022-10-19T14:04:01.611Z,1.52
2022-10-19T14:06:38.753Z,1.95
2022-10-19T14:09:20.757Z,3.50
2022-10-19T14:11:50.288Z,4.25
2022-10-19T14:14:19.318Z,0.93
2022-10-19T14:16:51.316Z,2.72
2022-10-19T14:19:26.827Z,0.63
2022-10-19T14:21:56.136Z,7.97
2022-10-19T14:24:33.468Z,0.88
2022-10-19T14:27:02.836Z,1.63
2022-10-19T14:29:33.719Z,0.87
2022-10-19T14:32:00.591Z,2.93
2022-10-19T14:34:27.694Z,1.70
2022-10-19T14:36:54.640Z,2.47
2022-10-19T14:39:25.917Z,5.17
2022-10-19T14:41:55.673Z,2.23
2022-10-19T14:44:37.337Z,2.10
2022-10-19T14:47:19.994Z,0.93
2022-10-19T14:49:47.692Z,1.97
2022-10-19T14:52:23.114Z,1.57
2022-10-19T14:54:54.160Z,1.37
2022-10-19T14:57:31.902Z,8.33
2022-10-19T15:00:03.607Z,3.97
2022-10-19T15:02:36.695Z,2.53
2022-10-19T15:05:05.527Z,1.40
2022-10-19T15:07:41.065Z,2.23
2022-10-19T15:10:30.243Z,3.50
2022-10-19T15:13:06.438Z,1.83
2022-10-19T15:15:35.479Z,4.83
2022-10-19T15:18:02.311Z,1.40
2022-10-19T15:20:49.140Z,3.87
2022-10-19T15:23:36.673Z,2.83
2022-10-19T15:26:17.356Z,6.03
2022-10-19T15:28:45.207Z,1.87
2022-10-19T15:31:26.621Z,2.50
2022-10-19T15:33:55.991Z,4.30
2022-10-19T15:36:24.379Z,2.30
2022-10-19T15:39:06.134Z,4.00
2022-10-19T15:41:44.848Z,2.33
2022-10-19T15:44:32.081Z,4.67
2022-10-19T15:47:19.027Z,6.70
2022-10-19T15:49:46.314Z,8.77
2022-10-19T15:52:18.081Z,9.43
2022-10-19T15:54:53.891Z,9.00
2022-10-19T15:57:34.733Z,11.67
2022-10-19T16:00:11.295Z,10.77
2022-10-19T16:02:39.328Z,16.83
2022-10-19T16:07:40.799Z,18.37
2022-10-19T16:10:14.317Z,11.53
2022-10-19T16:12:41.372Z,13.43
2022-10-19T16:15:12.009Z,12.63
2022-10-19T16:17:39.759Z,13.33
2022-10-19T16:20:06.809Z,12.20
2022-10-19T16:22:33.757Z,16.43
2022-10-19T16:25:00.462Z,18.77
2022-10-19T16:27:27.675Z,16.87
2022-10-19T16:29:54.583Z,20.83
2022-10-19T16:32:21.574Z,19.30
2022-10-19T16:34:48.293Z,18.13
2022-10-19T16:37:15.361Z,14.30
2022-10-19T16:39:42.116Z,18.13
2022-10-19T16:42:09.200Z,18.17
2022-10-19T16:44:35.912Z,14.53
2022-10-19T16:47:02.940Z,13.87
2022-10-19T16:49:29.721Z,13.77
2022-10-19T16:51:57.720Z,12.40
2022-10-19T16:54:26.764Z,23.10
2022-10-19T16:56:55.601Z,21.80
2022-10-19T16:59:22.569Z,26.40
2022-10-19T17:01:49.684Z,18.93
2022-10-19T17:04:18.041Z,19.37
2022-10-19T17:06:45.408Z,18.23
2022-10-19T17:11:59.409Z,17.90
2022-10-19T17:14:26.329Z,19.20
2022-10-19T17:16:53.247Z,18.73
2022-10-19T17:19:19.944Z,13.87
2022-10-19T17:21:48.300Z,16.97
2022-10-19T17:24:21.944Z,18.50
2022-10-19T17:26:51.063Z,17.37
2022-10-19T17:29:18.664Z,17.27
2022-10-19T17:31:46.091Z,18.23
2022-10-19T17:34:13.101Z,17.33
2022-10-19T17:36:44.332Z,25.63
2022-10-19T17:39:15.074Z,19.43
2022-10-19T17:41:42.036Z,16.90
2022-10-19T17:44:08.833Z,21.83
2022-10-19T17:46:35.813Z,23.73
2022-10-19T17:49:03.328Z,23.27
2022-10-19T17:51:33.066Z,22.40
2022-10-19T17:54:05.620Z,20.17
2022-10-19T17:56:32.653Z,27.37
2022-10-19T17:59:00.259Z,24.23
2022-10-19T18:01:27.342Z,24.07
2022-10-19T18:03:54.271Z,23.10
2022-10-19T18:06:24.207Z,25.77
2022-10-19T18:08:54.429Z,25.47
2022-10-19T18:11:27.409Z,29.43
2022-10-19T18:13:56.308Z,30.00
2022-10-19T18:16:26.354Z,35.37
2022-10-19T18:18:55.632Z,28.63
2022-10-19T18:21:27.903Z,33.07
2022-10-19T18:23:56.893Z,35.50
2022-10-19T18:26:27.208Z,33.87
2022-10-19T18:28:55.282Z,34.83
2022-10-19T18:31:25.109Z,44.03
2022-10-19T18:33:57.815Z,44.93
2022-10-19T18:36:25.133Z,43.80
2022-10-19T18:38:57.151Z,40.83
2022-10-19T18:41:25.167Z,40.33
2022-10-19T18:43:58.035Z,38.93
2022-10-19T18:46:26.636Z,32.53
2022-10-19T18:48:53.839Z,33.87
2022-10-19T18:51:22.284Z,38.93
2022-10-19T18:53:49.726Z,42.10
2022-10-19T18:56:19.497Z,42.87
2022-10-19T18:58:46.737Z,52.63
2022-10-19T19:01:16.495Z,48.93
2022-10-19T19:03:49.709Z,48.37
2022-10-19T19:06:19.315Z,40.00
2022-10-19T19:08:46.580Z,38.10
2022-10-19T19:11:19.095Z,30.70
2022-10-19T19:13:52.969Z,33.53
2022-10-19T19:16:21.078Z,23.77
2022-10-19T19:18:48.079Z,20.73
2022-10-19T19:21:21.034Z,24.77
2022-10-19T19:23:48.636Z,36.67
2022-10-19T19:26:15.911Z,34.67
2022-10-19T19:28:44.346Z,47.40
2022-10-19T19:31:15.931Z,40.67
2022-10-19T19:33:46.978Z,24.93
2022-10-19T19:36:16.327Z,23.80
2022-10-19T19:38:43.715Z,21.63
2022-10-19T19:41:14.550Z,14.93
2022-10-19T19:43:42.717Z,12.73
2022-10-19T19:46:15.319Z,14.73
2022-10-19T19:48:44.218Z,11.40
2022-10-19T19:51:17.230Z,12.27
2022-10-19T19:53:44.537Z,13.87
2022-10-19T19:56:13.469Z,7.83
2022-10-19T19:58:42.043Z,18.90
2022-10-19T20:01:12.465Z,12.07
2022-10-19T20:03:41.053Z,16.60
2022-10-19T20:06:08.965Z,11.60
2022-10-19T20:08:36.986Z,17.73
2022-10-19T20:11:06.309Z,27.50
2022-10-19T20:13:33.910Z,42.70
2022-10-19T20:16:12.460Z,40.63
2022-10-19T20:18:45.397Z,95.33
2022-10-19T20:21:13.268Z,40.40
2022-10-19T20:23:40.396Z,26.23
2022-10-19T20:26:21.334Z,27.80
2022-10-19T20:28:48.301Z,23.97
2022-10-19T20:31:15.729Z,15.77
2022-10-19T20:33:44.076Z,21.20
2022-10-19T20:36:14.237Z,18.83
2022-10-19T20:38:46.661Z,13.27
2022-10-19T20:41:13.864Z,15.13
2022-10-19T20:43:40.651Z,10.07
2022-10-19T20:46:12.719Z,11.03
2022-10-19T20:48:40.366Z,13.83
2022-10-19T20:51:13.186Z,9.67
2022-10-19T20:53:40.239Z,8.17
2022-10-19T20:56:09.971Z,10.53
2022-10-19T20:58:42.700Z,14.97
2022-10-19T21:01:12.980Z,12.97
2022-10-19T21:03:40.540Z,19.23
2022-10-19T21:06:08.856Z,20.83
2022-10-19T21:08:36.690Z,22.90
2022-10-19T21:11:14.904Z,19.93
2022-10-19T21:13:43.013Z,21.70
2022-10-19T21:16:18.781Z,15.50
2022-10-19T21:18:47.367Z,12.90
2022-10-19T21:21:15.904Z,14.50
2022-10-19T21:23:44.360Z,14.87
2022-10-19T21:26:12.430Z,10.33
2022-10-19T21:28:40.026Z,12.40
2022-10-19T21:31:08.917Z,9.90
2022-10-19T21:33:36.167Z,12.70
2022-10-19T21:36:05.181Z,14.40
2022-10-19T21:38:32.638Z,15.40
2022-10-19T21:41:00.622Z,7.93
2022-10-19T21:43:28.696Z,6.93
2022-10-19T21:45:56.383Z,9.33
2022-10-19T21:48:23.731Z,12.50
2022-10-19T21:50:50.687Z,9.80
2022-10-19T21:53:19.571Z,10.93
2022-10-19T21:55:46.932Z,16.13
2022-10-19T21:58:13.990Z,13.60
2022-10-19T22:00:40.960Z,13.50
2022-10-19T22:03:07.909Z,8.27
2022-10-19T22:05:34.954Z,17.17
2022-10-19T22:08:01.759Z,15.47
2022-10-19T22:10:28.697Z,14.73
2022-10-19T22:12:56.141Z,13.87
2022-10-19T22:15:23.143Z,11.97
2022-10-19T22:17:50.103Z,20.00
2022-10-19T22:20:17.209Z,16.77
2022-10-19T22:22:43.921Z,17.60
2022-10-19T22:25:10.858Z,14.90
2022-10-19T22:27:37.589Z,14.60
2022-10-19T22:30:04.965Z,17.57
2022-10-19T22:32:31.740Z,14.73
2022-10-19T22:34:58.771Z,17.33
2022-10-19T22:37:25.481Z,16.60
2022-10-19T22:39:52.516Z,24.37
2022-10-19T22:42:19.239Z,21.40
2022-10-19T22:44:46.122Z,24.10
2022-10-19T22:47:12.855Z,28.17
2022-10-19T22:49:39.769Z,30.60
2022-10-19T22:52:06.551Z,23.70
2022-10-19T22:54:33.508Z,27.90
2022-10-19T22:57:00.657Z,27.90
2022-10-19T22:59:27.948Z,19.60
2022-10-19T23:01:54.723Z,22.07
2022-10-19T23:04:21.690Z,22.17
2022-10-19T23:06:48.504Z,20.33
2022-10-19T23:09:15.603Z,25.20
2022-10-19T23:11:42.497Z,17.80
2022-10-19T23:14:09.423Z,19.97
2022-10-19T23:16:36.233Z,27.50
2022-10-19T23:19:03.399Z,14.53
2022-10-19T23:21:30.725Z,13.90
2022-10-19T23:23:57.690Z,17.33
2022-10-19T23:26:25.787Z,16.07
2022-10-19T23:28:52.822Z,19.87
2022-10-19T23:31:26.031Z,16.33
2022-10-19T23:33:53.659Z,15.80
2022-10-19T23:36:26.788Z,16.53
2022-10-19T23:38:55.263Z,20.50
2022-10-19T23:41:22.718Z,22.17
2022-10-19T23:43:49.998Z,18.50
2022-10-19T23:46:17.166Z,23.27
2022-10-19T23:48:44.198Z,15.90
2022-10-19T23:51:14.026Z,16.07
2022-10-19T23:53:43.217Z,17.33
2022-10-19T23:56:13.755Z,17.67
2022-10-19T23:58:41.010Z,14.50
